sensor_id;sensor_type;location;lat;lon;timestamp;P1;durP1;ratioP1;P2;durP2;ratioP2
17424;SDS011;8830;50.978;5.058;2022-10-16T00:00:36;1.03;;;1.00;;
17424;SDS011;8830;50.978;5.058;2022-10-16T00:03:12;2.13;;;0.90;;
17424;SDS011;8830;50.978;5.058;2022-10-16T00:05:47;1.23;;;1.10;;
17424;SDS011;8830;50.978;5.058;2022-10-16T00:08:17;4.87;;;1.40;;
17424;SDS011;8830;50.978;5.058;2022-10-16T00:10:47;1.20;;;1.10;;
17424;SDS011;8830;50.978;5.058;2022-10-16T00:13:15;3.20;;;1.50;;
17424;SDS011;8830;50.978;5.058;2022-10-16T00:15:50;4.90;;;1.43;;
17424;SDS011;8830;50.978;5.058;2022-10-16T00:18:34;1.90;;;1.00;;
17424;SDS011;8830;50.978;5.058;2022-10-16T00:21:09;1.23;;;1.10;;
17424;SDS011;8830;50.978;5.058;2022-10-16T00:23:38;2.20;;;1.10;;
17424;SDS011;8830;50.978;5.058;2022-10-16T00:26:11;1.73;;;1.20;;
17424;SDS011;8830;50.978;5.058;2022-10-16T00:28:46;1.10;;;1.00;;
17424;SDS011;8830;50.978;5.058;2022-10-16T00:31:18;1.13;;;1.03;;
17424;SDS011;8830;50.978;5.058;2022-10-16T00:33:50;1.50;;;1.10;;
17424;SDS011;8830;50.978;5.058;2022-10-16T00:36:19;2.07;;;1.00;;
17424;SDS011;8830;50.978;5.058;2022-10-16T00:38:56;2.77;;;1.20;;
17424;SDS011;8830;50.978;5.058;2022-10-16T00:41:27;3.07;;;1.43;;
17424;SDS011;8830;50.978;5.058;2022-10-16T00:47:13;2.23;;;1.33;;
17424;SDS011;8830;50.978;5.058;2022-10-16T00:49:48;3.47;;;1.23;;
17424;SDS011;8830;50.978;5.058;2022-10-16T00:52:20;1.73;;;1.00;;
17424;SDS011;8830;50.978;5.058;2022-10-16T00:54:58;1.43;;;1.00;;
17424;SDS011;8830;50.978;5.058;2022-10-16T00:57:29;2.03;;;0.83;;
17424;SDS011;8830;50.978;5.058;2022-10-16T00:59:57;1.00;;;0.90;;
17424;SDS011;8830;50.978;5.058;2022-10-16T01:02:35;3.27;;;1.00;;
17424;SDS011;8830;50.978;5.058;2022-10-16T01:05:05;1.13;;;1.00;;
17424;SDS011;8830;50.978;5.058;2022-10-16T01:07:38;1.83;;;1.63;;
17424;SDS011;8830;50.978;5.058;2022-10-16T01:10:20;1.90;;;1.07;;
17424;SDS011;8830;50.978;5.058;2022-10-16T01:12:58;1.20;;;0.97;;
17424;SDS011;8830;50.978;5.058;2022-10-16T01:15:45;2.67;;;1.30;;
17424;SDS011;8830;50.978;5.058;2022-10-16T01:18:27;1.53;;;0.93;;
17424;SDS011;8830;50.978;5.058;2022-10-16T01:21:10;2.70;;;1.07;;
17424;SDS011;8830;50.978;5.058;2022-10-16T01:23:48;2.40;;;1.30;;
17424;SDS011;8830;50.978;5.058;2022-10-16T01:26:36;2.27;;;0.77;;
17424;SDS011;8830;50.978;5.058;2022-10-16T01:29:20;1.57;;;1.03;;
17424;SDS011;8830;50.978;5.058;2022-10-16T01:31:59;2.70;;;1.10;;
17424;SDS011;8830;50.978;5.058;2022-10-16T01:34:38;2.87;;;1.53;;
17424;SDS011;8830;50.978;5.058;2022-10-16T01:37:20;0.70;;;0.70;;
17424;SDS011;8830;50.978;5.058;2022-10-16T01:40:19;2.30;;;1.00;;
17424;SDS011;8830;50.978;5.058;2022-10-16T01:43:02;1.83;;;1.20;;
17424;SDS011;8830;50.978;5.058;2022-10-16T01:45:44;0.93;;;0.83;;
17424;SDS011;8830;50.978;5.058;2022-10-16T01:48:16;1.10;;;0.80;;
17424;SDS011;8830;50.978;5.058;2022-10-16T01:50:49;4.33;;;1.00;;
17424;SDS011;8830;50.978;5.058;2022-10-16T01:53:20;2.60;;;1.00;;
17424;SDS011;8830;50.978;5.058;2022-10-16T01:55:54;2.00;;;0.90;;
17424;SDS011;8830;50.978;5.058;2022-10-16T01:58:24;1.33;;;1.00;;
17424;SDS011;8830;50.978;5.058;2022-10-16T02:00:57;2.20;;;0.87;;
17424;SDS011;8830;50.978;5.058;2022-10-16T02:03:25;2.80;;;1.37;;
17424;SDS011;8830;50.978;5.058;2022-10-16T02:06:00;3.20;;;1.30;;
17424;SDS011;8830;50.978;5.058;2022-10-16T02:08:30;1.10;;;1.00;;
17424;SDS011;8830;50.978;5.058;2022-10-16T02:11:00;2.80;;;1.60;;
17424;SDS011;8830;50.978;5.058;2022-10-16T02:13:35;2.83;;;1.30;;
17424;SDS011;8830;50.978;5.058;2022-10-16T02:16:10;5.00;;;2.20;;
17424;SDS011;8830;50.978;5.058;2022-10-16T02:18:38;3.47;;;1.37;;
17424;SDS011;8830;50.978;5.058;2022-10-16T02:21:10;1.67;;;1.50;;
17424;SDS011;8830;50.978;5.058;2022-10-16T02:23:54;1.30;;;1.20;;
17424;SDS011;8830;50.978;5.058;2022-10-16T02:26:48;1.77;;;1.33;;
17424;SDS011;8830;50.978;5.058;2022-10-16T02:29:25;1.50;;;1.20;;
17424;SDS011;8830;50.978;5.058;2022-10-16T02:34:38;1.90;;;1.47;;
17424;SDS011;8830;50.978;5.058;2022-10-16T02:37:08;2.13;;;1.30;;
17424;SDS011;8830;50.978;5.058;2022-10-16T02:39:36;2.00;;;1.23;;
17424;SDS011;8830;50.978;5.058;2022-10-16T02:42:11;2.40;;;1.60;;
17424;SDS011;8830;50.978;5.058;2022-10-16T02:44:41;5.77;;;1.43;;
17424;SDS011;8830;50.978;5.058;2022-10-16T02:47:11;2.83;;;1.37;;
17424;SDS011;8830;50.978;5.058;2022-10-16T02:49:39;4.93;;;1.70;;
17424;SDS011;8830;50.978;5.058;2022-10-16T02:52:07;1.80;;;1.33;;
17424;SDS011;8830;50.978;5.058;2022-10-16T02:54:35;1.27;;;1.17;;
17424;SDS011;8830;50.978;5.058;2022-10-16T02:57:05;2.97;;;1.53;;
17424;SDS011;8830;50.978;5.058;2022-10-16T02:59:34;2.10;;;1.33;;
17424;SDS011;8830;50.978;5.058;2022-10-16T03:02:05;3.70;;;1.47;;
17424;SDS011;8830;50.978;5.058;2022-10-16T03:04:39;1.97;;;1.33;;
17424;SDS011;8830;50.978;5.058;2022-10-16T03:07:17;3.97;;;1.60;;
17424;SDS011;8830;50.978;5.058;2022-10-16T03:09:59;2.23;;;1.13;;
17424;SDS011;8830;50.978;5.058;2022-10-16T03:12:30;1.60;;;1.00;;
17424;SDS011;8830;50.978;5.058;2022-10-16T03:14:58;2.47;;;1.63;;
17424;SDS011;8830;50.978;5.058;2022-10-16T03:17:31;2.60;;;1.70;;
17424;SDS011;8830;50.978;5.058;2022-10-16T03:22:45;1.83;;;1.40;;
17424;SDS011;8830;50.978;5.058;2022-10-16T03:25:13;1.87;;;1.53;;
17424;SDS011;8830;50.978;5.058;2022-10-16T03:27:48;2.40;;;1.23;;
17424;SDS011;8830;50.978;5.058;2022-10-16T03:30:23;2.17;;;1.43;;
17424;SDS011;8830;50.978;5.058;2022-10-16T03:32:58;1.73;;;1.40;;
17424;SDS011;8830;50.978;5.058;2022-10-16T03:35:36;2.20;;;1.27;;
17424;SDS011;8830;50.978;5.058;2022-10-16T03:38:04;2.27;;;1.50;;
17424;SDS011;8830;50.978;5.058;2022-10-16T03:40:39;1.57;;;1.30;;
17424;SDS011;8830;50.978;5.058;2022-10-16T03:43:09;2.40;;;1.30;;
17424;SDS011;8830;50.978;5.058;2022-10-16T03:45:37;4.00;;;1.40;;
17424;SDS011;8830;50.978;5.058;2022-10-16T03:48:08;1.23;;;1.13;;
17424;SDS011;8830;50.978;5.058;2022-10-16T03:50:44;1.20;;;1.10;;
17424;SDS011;8830;50.978;5.058;2022-10-16T03:53:14;6.43;;;1.30;;
17424;SDS011;8830;50.978;5.058;2022-10-16T03:55:49;1.70;;;1.30;;
17424;SDS011;8830;50.978;5.058;2022-10-16T03:58:21;1.50;;;1.40;;
17424;SDS011;8830;50.978;5.058;2022-10-16T04:00:56;2.03;;;1.30;;
17424;SDS011;8830;50.978;5.058;2022-10-16T04:03:26;5.23;;;1.30;;
17424;SDS011;8830;50.978;5.058;2022-10-16T04:06:03;3.03;;;1.30;;
17424;SDS011;8830;50.978;5.058;2022-10-16T04:11:10;2.37;;;1.27;;
17424;SDS011;8830;50.978;5.058;2022-10-16T04:13:38;3.70;;;1.53;;
17424;SDS011;8830;50.978;5.058;2022-10-16T04:16:11;2.37;;;1.50;;
17424;SDS011;8830;50.978;5.058;2022-10-16T04:18:39;4.27;;;1.50;;
17424;SDS011;8830;50.978;5.058;2022-10-16T04:21:10;1.50;;;1.40;;
17424;SDS011;8830;50.978;5.058;2022-10-16T04:23:45;1.80;;;1.33;;
17424;SDS011;8830;50.978;5.058;2022-10-16T04:26:28;1.90;;;1.60;;
17424;SDS011;8830;50.978;5.058;2022-10-16T04:28:58;1.80;;;1.70;;
17424;SDS011;8830;50.978;5.058;2022-10-16T04:31:29;3.40;;;2.10;;
17424;SDS011;8830;50.978;5.058;2022-10-16T04:34:00;2.00;;;1.80;;
17424;SDS011;8830;50.978;5.058;2022-10-16T04:36:42;4.00;;;2.17;;
17424;SDS011;8830;50.978;5.058;2022-10-16T04:39:10;2.63;;;1.90;;
17424;SDS011;8830;50.978;5.058;2022-10-16T04:41:47;2.43;;;2.10;;
17424;SDS011;8830;50.978;5.058;2022-10-16T04:44:22;5.43;;;2.10;;
17424;SDS011;8830;50.978;5.058;2022-10-16T04:46:53;3.20;;;2.10;;
17424;SDS011;8830;50.978;5.058;2022-10-16T04:49:25;2.33;;;2.20;;
17424;SDS011;8830;50.978;5.058;2022-10-16T04:52:12;2.53;;;2.10;;
17424;SDS011;8830;50.978;5.058;2022-10-16T04:54:51;2.70;;;2.50;;
17424;SDS011;8830;50.978;5.058;2022-10-16T04:57:32;2.87;;;2.50;;
17424;SDS011;8830;50.978;5.058;2022-10-16T05:00:01;5.90;;;2.60;;
17424;SDS011;8830;50.978;5.058;2022-10-16T05:02:35;2.70;;;2.50;;
17424;SDS011;8830;50.978;5.058;2022-10-16T05:05:36;2.57;;;2.37;;
17424;SDS011;8830;50.978;5.058;2022-10-16T05:11:03;3.90;;;2.27;;
17424;SDS011;8830;50.978;5.058;2022-10-16T05:13:44;2.57;;;2.33;;
17424;SDS011;8830;50.978;5.058;2022-10-16T05:16:15;4.97;;;2.50;;
17424;SDS011;8830;50.978;5.058;2022-10-16T05:18:46;3.23;;;2.87;;
17424;SDS011;8830;50.978;5.058;2022-10-16T05:21:30;2.97;;;2.70;;
17424;SDS011;8830;50.978;5.058;2022-10-16T05:24:04;2.53;;;2.33;;
17424;SDS011;8830;50.978;5.058;2022-10-16T05:26:44;3.40;;;2.10;;
17424;SDS011;8830;50.978;5.058;2022-10-16T05:29:18;2.83;;;2.50;;
17424;SDS011;8830;50.978;5.058;2022-10-16T05:31:53;4.50;;;2.37;;
17424;SDS011;8830;50.978;5.058;2022-10-16T05:34:34;3.47;;;1.90;;
17424;SDS011;8830;50.978;5.058;2022-10-16T05:37:04;4.07;;;2.70;;
17424;SDS011;8830;50.978;5.058;2022-10-16T05:39:38;4.57;;;2.57;;
17424;SDS011;8830;50.978;5.058;2022-10-16T05:42:11;2.83;;;2.40;;
17424;SDS011;8830;50.978;5.058;2022-10-16T05:44:55;2.20;;;2.00;;
17424;SDS011;8830;50.978;5.058;2022-10-16T05:47:25;3.60;;;2.30;;
17424;SDS011;8830;50.978;5.058;2022-10-16T05:50:00;2.53;;;1.87;;
17424;SDS011;8830;50.978;5.058;2022-10-16T05:52:30;2.97;;;2.30;;
17424;SDS011;8830;50.978;5.058;2022-10-16T05:55:12;2.87;;;2.47;;
17424;SDS011;8830;50.978;5.058;2022-10-16T05:57:42;3.10;;;1.90;;
17424;SDS011;8830;50.978;5.058;2022-10-16T06:00:14;2.40;;;2.10;;
17424;SDS011;8830;50.978;5.058;2022-10-16T06:02:42;3.83;;;2.30;;
17424;SDS011;8830;50.978;5.058;2022-10-16T06:12:28;2.50;;;2.23;;
17424;SDS011;8830;50.978;5.058;2022-10-16T06:22:01;3.57;;;2.40;;
17424;SDS011;8830;50.978;5.058;2022-10-16T07:09:05;1.17;;;1.08;;
17424;SDS011;8830;50.978;5.058;2022-10-16T07:12:00;3.63;;;1.75;;
17424;SDS011;8830;50.978;5.058;2022-10-16T07:14:43;3.05;;;1.30;;
17424;SDS011;8830;50.978;5.058;2022-10-16T07:17:24;1.90;;;1.33;;
17424;SDS011;8830;50.978;5.058;2022-10-16T07:20:06;5.05;;;1.42;;
17424;SDS011;8830;50.978;5.058;2022-10-16T07:22:39;2.65;;;1.10;;
17424;SDS011;8830;50.978;5.058;2022-10-16T07:28:07;3.60;;;1.40;;
17424;SDS011;8830;50.978;5.058;2022-10-16T07:30:37;2.60;;;1.30;;
17424;SDS011;8830;50.978;5.058;2022-10-16T07:33:14;3.40;;;1.55;;
17424;SDS011;8830;50.978;5.058;2022-10-16T07:38:20;1.92;;;1.33;;
17424;SDS011;8830;50.978;5.058;2022-10-16T07:40:59;2.40;;;1.40;;
17424;SDS011;8830;50.978;5.058;2022-10-16T07:44:20;3.75;;;1.30;;
17424;SDS011;8830;50.978;5.058;2022-10-16T07:46:48;4.60;;;1.20;;
17424;SDS011;8830;50.978;5.058;2022-10-16T07:49:34;2.63;;;1.38;;
17424;SDS011;8830;50.978;5.058;2022-10-16T07:55:20;1.75;;;1.30;;
17424;SDS011;8830;50.978;5.058;2022-10-16T08:00:41;2.58;;;1.40;;
17424;SDS011;8830;50.978;5.058;2022-10-16T08:03:31;2.70;;;1.17;;
17424;SDS011;8830;50.978;5.058;2022-10-16T08:06:44;2.63;;;1.20;;
17424;SDS011;8830;50.978;5.058;2022-10-16T08:09:48;4.70;;;1.00;;
17424;SDS011;8830;50.978;5.058;2022-10-16T11:31:47;6.43;;;1.00;;
17424;SDS011;8830;50.978;5.058;2022-10-16T11:35:05;3.55;;;0.80;;
17424;SDS011;8830;50.978;5.058;2022-10-16T11:38:27;7.03;;;1.20;;
17424;SDS011;8830;50.978;5.058;2022-10-16T11:45:02;3.80;;;0.80;;
17424;SDS011;8830;50.978;5.058;2022-10-16T13:02:43;3.42;;;1.13;;
17424;SDS011;8830;50.978;5.058;2022-10-16T13:36:05;3.13;;;1.20;;
17424;SDS011;8830;50.978;5.058;2022-10-16T13:43:05;1.98;;;1.10;;
17424;SDS011;8830;50.978;5.058;2022-10-16T13:52:19;4.50;;;1.13;;
17424;SDS011;8830;50.978;5.058;2022-10-16T14:02:08;3.70;;;0.77;;
17424;SDS011;8830;50.978;5.058;2022-10-16T15:16:58;4.50;;;1.10;;
17424;SDS011;8830;50.978;5.058;2022-10-16T15:38:03;1.53;;;0.50;;
17424;SDS011;8830;50.978;5.058;2022-10-16T15:40:54;1.25;;;0.75;;
17424;SDS011;8830;50.978;5.058;2022-10-16T15:44:18;1.50;;;0.83;;
17424;SDS011;8830;50.978;5.058;2022-10-16T15:50:09;4.33;;;1.03;;
17424;SDS011;8830;50.978;5.058;2022-10-16T15:53:13;2.67;;;1.00;;
17424;SDS011;8830;50.978;5.058;2022-10-16T16:02:09;2.30;;;1.30;;
17424;SDS011;8830;50.978;5.058;2022-10-16T16:05:21;3.03;;;1.10;;
17424;SDS011;8830;50.978;5.058;2022-10-16T16:12:01;3.97;;;1.60;;
17424;SDS011;8830;50.978;5.058;2022-10-16T16:14:48;2.40;;;1.20;;
17424;SDS011;8830;50.978;5.058;2022-10-16T16:20:38;1.77;;;1.50;;
17424;SDS011;8830;50.978;5.058;2022-10-16T16:23:55;1.90;;;1.27;;
17424;SDS011;8830;50.978;5.058;2022-10-16T16:30:35;3.60;;;1.80;;
17424;SDS011;8830;50.978;5.058;2022-10-16T16:33:26;3.43;;;1.80;;
17424;SDS011;8830;50.978;5.058;2022-10-16T16:38:43;3.03;;;1.97;;
17424;SDS011;8830;50.978;5.058;2022-10-16T16:41:17;2.20;;;2.03;;
17424;SDS011;8830;50.978;5.058;2022-10-16T16:44:52;1.73;;;1.63;;
17424;SDS011;8830;50.978;5.058;2022-10-16T16:47:59;2.10;;;1.27;;
17424;SDS011;8830;50.978;5.058;2022-10-16T16:50:28;3.43;;;1.90;;
17424;SDS011;8830;50.978;5.058;2022-10-16T16:53:05;5.80;;;1.77;;
17424;SDS011;8830;50.978;5.058;2022-10-16T16:55:38;4.97;;;2.13;;
17424;SDS011;8830;50.978;5.058;2022-10-16T16:58:06;3.87;;;1.67;;
17424;SDS011;8830;50.978;5.058;2022-10-16T17:00:35;4.40;;;1.83;;
17424;SDS011;8830;50.978;5.058;2022-10-16T17:03:12;4.20;;;2.10;;
17424;SDS011;8830;50.978;5.058;2022-10-16T17:05:42;2.50;;;1.80;;
17424;SDS011;8830;50.978;5.058;2022-10-16T17:08:09;4.53;;;1.83;;
17424;SDS011;8830;50.978;5.058;2022-10-16T17:10:42;5.13;;;1.80;;
17424;SDS011;8830;50.978;5.058;2022-10-16T17:13:20;4.63;;;1.70;;
17424;SDS011;8830;50.978;5.058;2022-10-16T17:15:50;3.67;;;1.70;;
17424;SDS011;8830;50.978;5.058;2022-10-16T17:18:23;2.63;;;1.80;;
17424;SDS011;8830;50.978;5.058;2022-10-16T17:20:58;3.33;;;1.60;;
17424;SDS011;8830;50.978;5.058;2022-10-16T17:23:25;3.27;;;1.83;;
17424;SDS011;8830;50.978;5.058;2022-10-16T17:26:02;4.30;;;3.20;;
17424;SDS011;8830;50.978;5.058;2022-10-16T17:28:31;5.20;;;3.67;;
17424;SDS011;8830;50.978;5.058;2022-10-16T17:31:09;3.57;;;3.17;;
17424;SDS011;8830;50.978;5.058;2022-10-16T17:33:43;2.97;;;2.67;;
17424;SDS011;8830;50.978;5.058;2022-10-16T17:36:25;3.93;;;2.30;;
17424;SDS011;8830;50.978;5.058;2022-10-16T17:38:57;13.50;;;4.20;;
17424;SDS011;8830;50.978;5.058;2022-10-16T17:41:30;8.00;;;3.30;;
17424;SDS011;8830;50.978;5.058;2022-10-16T17:44:03;5.77;;;3.23;;
17424;SDS011;8830;50.978;5.058;2022-10-16T17:46:32;4.80;;;4.00;;
17424;SDS011;8830;50.978;5.058;2022-10-16T17:49:01;6.67;;;3.80;;
17424;SDS011;8830;50.978;5.058;2022-10-16T17:51:28;5.07;;;3.70;;
17424;SDS011;8830;50.978;5.058;2022-10-16T17:53:58;5.33;;;3.40;;
17424;SDS011;8830;50.978;5.058;2022-10-16T17:56:26;7.90;;;4.07;;
17424;SDS011;8830;50.978;5.058;2022-10-16T17:58:54;5.10;;;3.83;;
17424;SDS011;8830;50.978;5.058;2022-10-16T18:01:24;7.10;;;4.30;;
17424;SDS011;8830;50.978;5.058;2022-10-16T18:03:52;6.40;;;3.60;;
17424;SDS011;8830;50.978;5.058;2022-10-16T18:06:22;7.13;;;6.43;;
17424;SDS011;8830;50.978;5.058;2022-10-16T18:08:50;6.80;;;5.30;;
17424;SDS011;8830;50.978;5.058;2022-10-16T18:11:17;7.70;;;4.80;;
17424;SDS011;8830;50.978;5.058;2022-10-16T18:13:52;6.93;;;5.30;;
17424;SDS011;8830;50.978;5.058;2022-10-16T18:16:20;5.37;;;4.87;;
17424;SDS011;8830;50.978;5.058;2022-10-16T18:18:47;3.53;;;3.23;;
17424;SDS011;8830;50.978;5.058;2022-10-16T18:21:15;5.93;;;3.93;;
17424;SDS011;8830;50.978;5.058;2022-10-16T18:23:44;4.77;;;3.07;;
17424;SDS011;8830;50.978;5.058;2022-10-16T18:26:13;4.57;;;3.90;;
17424;SDS011;8830;50.978;5.058;2022-10-16T18:28:41;3.80;;;3.13;;
17424;SDS011;8830;50.978;5.058;2022-10-16T18:31:10;11.37;;;3.83;;
17424;SDS011;8830;50.978;5.058;2022-10-16T18:33:39;5.83;;;4.37;;
17424;SDS011;8830;50.978;5.058;2022-10-16T18:36:12;3.73;;;3.43;;
17424;SDS011;8830;50.978;5.058;2022-10-16T18:38:39;6.13;;;3.70;;
17424;SDS011;8830;50.978;5.058;2022-10-16T18:41:08;4.30;;;3.60;;
17424;SDS011;8830;50.978;5.058;2022-10-16T18:43:36;4.40;;;4.00;;
17424;SDS011;8830;50.978;5.058;2022-10-16T18:46:05;4.00;;;3.47;;
17424;SDS011;8830;50.978;5.058;2022-10-16T18:48:33;5.30;;;3.97;;
17424;SDS011;8830;50.978;5.058;2022-10-16T18:51:06;5.60;;;3.70;;
17424;SDS011;8830;50.978;5.058;2022-10-16T18:53:37;7.60;;;3.67;;
17424;SDS011;8830;50.978;5.058;2022-10-16T18:56:04;5.70;;;4.20;;
17424;SDS011;8830;50.978;5.058;2022-10-16T18:58:33;5.80;;;4.10;;
17424;SDS011;8830;50.978;5.058;2022-10-16T19:01:04;5.53;;;4.60;;
17424;SDS011;8830;50.978;5.058;2022-10-16T19:03:33;4.30;;;3.90;;
17424;SDS011;8830;50.978;5.058;2022-10-16T19:06:01;5.07;;;4.10;;
17424;SDS011;8830;50.978;5.058;2022-10-16T19:08:29;7.67;;;4.70;;
17424;SDS011;8830;50.978;5.058;2022-10-16T19:11:01;5.47;;;4.90;;
17424;SDS011;8830;50.978;5.058;2022-10-16T19:13:28;5.50;;;4.70;;
17424;SDS011;8830;50.978;5.058;2022-10-16T19:15:56;6.30;;;4.20;;
17424;SDS011;8830;50.978;5.058;2022-10-16T19:18:25;10.43;;;5.03;;
17424;SDS011;8830;50.978;5.058;2022-10-16T19:20:53;6.17;;;5.10;;
17424;SDS011;8830;50.978;5.058;2022-10-16T19:23:20;7.57;;;5.30;;
17424;SDS011;8830;50.978;5.058;2022-10-16T19:25:49;5.50;;;4.93;;
17424;SDS011;8830;50.978;5.058;2022-10-16T19:28:16;6.07;;;5.37;;
17424;SDS011;8830;50.978;5.058;2022-10-16T19:30:43;8.97;;;4.83;;
17424;SDS011;8830;50.978;5.058;2022-10-16T19:33:13;8.47;;;4.87;;
17424;SDS011;8830;50.978;5.058;2022-10-16T19:35:40;6.53;;;4.97;;
17424;SDS011;8830;50.978;5.058;2022-10-16T19:38:08;5.47;;;4.93;;
17424;SDS011;8830;50.978;5.058;2022-10-16T19:40:35;5.33;;;4.87;;
17424;SDS011;8830;50.978;5.058;2022-10-16T19:43:04;6.17;;;4.90;;
17424;SDS011;8830;50.978;5.058;2022-10-16T19:45:33;9.27;;;5.33;;
17424;SDS011;8830;50.978;5.058;2022-10-16T19:48:00;5.77;;;5.27;;
17424;SDS011;8830;50.978;5.058;2022-10-16T19:50:30;6.20;;;5.60;;
17424;SDS011;8830;50.978;5.058;2022-10-16T19:52:58;6.13;;;5.63;;
17424;SDS011;8830;50.978;5.058;2022-10-16T19:55:24;6.13;;;5.40;;
17424;SDS011;8830;50.978;5.058;2022-10-16T19:57:51;7.50;;;6.00;;
17424;SDS011;8830;50.978;5.058;2022-10-16T20:00:18;5.63;;;5.23;;
17424;SDS011;8830;50.978;5.058;2022-10-16T20:02:45;7.37;;;5.40;;
17424;SDS011;8830;50.978;5.058;2022-10-16T20:05:12;5.43;;;4.93;;
17424;SDS011;8830;50.978;5.058;2022-10-16T20:07:41;7.53;;;5.63;;
17424;SDS011;8830;50.978;5.058;2022-10-16T20:10:08;7.10;;;5.57;;
17424;SDS011;8830;50.978;5.058;2022-10-16T20:12:35;6.03;;;5.53;;
17424;SDS011;8830;50.978;5.058;2022-10-16T20:15:03;8.93;;;5.57;;
17424;SDS011;8830;50.978;5.058;2022-10-16T20:17:32;6.50;;;5.90;;
17424;SDS011;8830;50.978;5.058;2022-10-16T20:19:59;6.70;;;6.10;;
17424;SDS011;8830;50.978;5.058;2022-10-16T20:22:26;7.03;;;6.33;;
17424;SDS011;8830;50.978;5.058;2022-10-16T20:24:54;7.47;;;6.43;;
17424;SDS011;8830;50.978;5.058;2022-10-16T20:27:21;8.07;;;6.93;;
17424;SDS011;8830;50.978;5.058;2022-10-16T20:29:49;8.53;;;6.30;;
17424;SDS011;8830;50.978;5.058;2022-10-16T20:32:16;8.17;;;5.97;;
17424;SDS011;8830;50.978;5.058;2022-10-16T20:34:44;6.23;;;5.73;;
17424;SDS011;8830;50.978;5.058;2022-10-16T20:37:13;7.53;;;6.77;;
17424;SDS011;8830;50.978;5.058;2022-10-16T20:39:40;7.57;;;6.97;;
17424;SDS011;8830;50.978;5.058;2022-10-16T20:42:08;8.27;;;6.67;;
17424;SDS011;8830;50.978;5.058;2022-10-16T20:44:35;6.57;;;5.90;;
17424;SDS011;8830;50.978;5.058;2022-10-16T20:47:02;7.70;;;6.10;;
17424;SDS011;8830;50.978;5.058;2022-10-16T20:49:29;6.90;;;6.20;;
17424;SDS011;8830;50.978;5.058;2022-10-16T20:51:56;7.83;;;5.90;;
17424;SDS011;8830;50.978;5.058;2022-10-16T20:54:23;14.93;;;6.37;;
17424;SDS011;8830;50.978;5.058;2022-10-16T20:56:50;6.27;;;5.70;;
17424;SDS011;8830;50.978;5.058;2022-10-16T20:59:19;6.83;;;6.23;;
17424;SDS011;8830;50.978;5.058;2022-10-16T21:01:45;6.77;;;6.23;;
17424;SDS011;8830;50.978;5.058;2022-10-16T21:04:13;6.40;;;5.90;;
17424;SDS011;8830;50.978;5.058;2022-10-16T21:06:39;6.43;;;5.83;;
17424;SDS011;8830;50.978;5.058;2022-10-16T21:09:07;7.23;;;6.30;;
17424;SDS011;8830;50.978;5.058;2022-10-16T21:11:35;6.53;;;5.93;;
17424;SDS011;8830;50.978;5.058;2022-10-16T21:14:04;7.63;;;6.23;;
17424;SDS011;8830;50.978;5.058;2022-10-16T21:16:34;6.57;;;6.07;;
17424;SDS011;8830;50.978;5.058;2022-10-16T21:19:01;7.40;;;6.70;;
17424;SDS011;8830;50.978;5.058;2022-10-16T21:21:29;7.37;;;6.70;;
17424;SDS011;8830;50.978;5.058;2022-10-16T21:23:58;7.20;;;6.40;;
17424;SDS011;8830;50.978;5.058;2022-10-16T21:26:26;6.77;;;6.10;;
17424;SDS011;8830;50.978;5.058;2022-10-16T21:28:55;7.33;;;6.83;;
17424;SDS011;8830;50.978;5.058;2022-10-16T21:31:23;8.77;;;7.23;;
17424;SDS011;8830;50.978;5.058;2022-10-16T21:33:53;7.50;;;6.90;;
17424;SDS011;8830;50.978;5.058;2022-10-16T21:36:32;7.33;;;6.73;;
17424;SDS011;8830;50.978;5.058;2022-10-16T21:39:01;7.63;;;7.00;;
17424;SDS011;8830;50.978;5.058;2022-10-16T21:41:29;7.67;;;6.93;;
17424;SDS011;8830;50.978;5.058;2022-10-16T21:43:56;7.63;;;6.93;;
17424;SDS011;8830;50.978;5.058;2022-10-16T21:46:24;7.93;;;7.23;;
17424;SDS011;8830;50.978;5.058;2022-10-16T21:48:54;8.73;;;7.20;;
17424;SDS011;8830;50.978;5.058;2022-10-16T21:51:24;8.60;;;7.60;;
17424;SDS011;8830;50.978;5.058;2022-10-16T21:53:52;8.73;;;7.60;;
17424;SDS011;8830;50.978;5.058;2022-10-16T21:56:19;8.93;;;7.70;;
17424;SDS011;8830;50.978;5.058;2022-10-16T21:58:47;8.50;;;7.70;;
17424;SDS011;8830;50.978;5.058;2022-10-16T22:01:15;8.73;;;7.70;;
17424;SDS011;8830;50.978;5.058;2022-10-16T22:03:43;8.13;;;7.33;;
17424;SDS011;8830;50.978;5.058;2022-10-16T22:06:14;7.60;;;7.00;;
17424;SDS011;8830;50.978;5.058;2022-10-16T22:08:42;7.53;;;7.03;;
17424;SDS011;8830;50.978;5.058;2022-10-16T22:11:12;7.60;;;6.90;;
17424;SDS011;8830;50.978;5.058;2022-10-16T22:13:41;7.27;;;6.57;;
17424;SDS011;8830;50.978;5.058;2022-10-16T22:16:08;8.17;;;6.87;;
17424;SDS011;8830;50.978;5.058;2022-10-16T22:18:36;7.10;;;6.50;;
17424;SDS011;8830;50.978;5.058;2022-10-16T22:21:04;7.73;;;6.90;;
17424;SDS011;8830;50.978;5.058;2022-10-16T22:23:35;7.33;;;6.70;;
17424;SDS011;8830;50.978;5.058;2022-10-16T22:26:04;8.20;;;7.50;;
17424;SDS011;8830;50.978;5.058;2022-10-16T22:28:33;6.90;;;6.30;;
17424;SDS011;8830;50.978;5.058;2022-10-16T22:31:00;7.07;;;6.57;;
17424;SDS011;8830;50.978;5.058;2022-10-16T22:33:28;7.33;;;6.60;;
17424;SDS011;8830;50.978;5.058;2022-10-16T22:35:55;7.60;;;6.93;;
17424;SDS011;8830;50.978;5.058;2022-10-16T22:38:27;7.37;;;6.87;;
17424;SDS011;8830;50.978;5.058;2022-10-16T22:40:59;8.10;;;7.07;;
17424;SDS011;8830;50.978;5.058;2022-10-16T22:43:27;7.13;;;6.63;;
17424;SDS011;8830;50.978;5.058;2022-10-16T22:45:54;8.20;;;7.50;;
17424;SDS011;8830;50.978;5.058;2022-10-16T22:48:21;7.87;;;6.90;;
17424;SDS011;8830;50.978;5.058;2022-10-16T22:50:48;8.63;;;6.83;;
17424;SDS011;8830;50.978;5.058;2022-10-16T22:53:15;7.57;;;6.97;;
17424;SDS011;8830;50.978;5.058;2022-10-16T22:55:42;7.43;;;6.93;;
17424;SDS011;8830;50.978;5.058;2022-10-16T22:58:11;7.60;;;6.97;;
17424;SDS011;8830;50.978;5.058;2022-10-16T23:00:39;8.37;;;7.67;;
17424;SDS011;8830;50.978;5.058;2022-10-16T23:03:07;8.93;;;7.87;;
17424;SDS011;8830;50.978;5.058;2022-10-16T23:05:36;9.23;;;8.33;;
17424;SDS011;8830;50.978;5.058;2022-10-16T23:08:04;9.00;;;8.10;;
17424;SDS011;8830;50.978;5.058;2022-10-16T23:10:31;8.90;;;8.13;;
17424;SDS011;8830;50.978;5.058;2022-10-16T23:12:59;8.70;;;8.00;;
17424;SDS011;8830;50.978;5.058;2022-10-16T23:15:28;8.87;;;8.17;;
17424;SDS011;8830;50.978;5.058;2022-10-16T23:17:55;10.43;;;8.83;;
17424;SDS011;8830;50.978;5.058;2022-10-16T23:20:22;9.77;;;8.83;;
17424;SDS011;8830;50.978;5.058;2022-10-16T23:22:49;10.50;;;9.37;;
17424;SDS011;8830;50.978;5.058;2022-10-16T23:25:16;10.00;;;9.03;;
17424;SDS011;8830;50.978;5.058;2022-10-16T23:27:43;10.13;;;9.23;;
17424;SDS011;8830;50.978;5.058;2022-10-16T23:30:10;10.10;;;9.17;;
17424;SDS011;8830;50.978;5.058;2022-10-16T23:32:39;10.13;;;8.83;;
17424;SDS011;8830;50.978;5.058;2022-10-16T23:35:07;10.63;;;9.60;;
17424;SDS011;8830;50.978;5.058;2022-10-16T23:37:34;10.80;;;9.80;;
17424;SDS011;8830;50.978;5.058;2022-10-16T23:40:02;9.77;;;9.07;;
17424;SDS011;8830;50.978;5.058;2022-10-16T23:42:30;10.57;;;9.77;;
17424;SDS011;8830;50.978;5.058;2022-10-16T23:44:56;10.70;;;9.80;;
17424;SDS011;8830;50.978;5.058;2022-10-16T23:47:23;10.83;;;9.70;;
17424;SDS011;8830;50.978;5.058;2022-10-16T23:49:52;11.53;;;10.47;;
17424;SDS011;8830;50.978;5.058;2022-10-16T23:52:19;10.53;;;9.43;;
17424;SDS011;8830;50.978;5.058;2022-10-16T23:54:46;10.10;;;9.20;;
17424;SDS011;8830;50.978;5.058;2022-10-16T23:57:13;10.53;;;9.33;;
17424;SDS011;8830;50.978;5.058;2022-10-16T23:59:40;10.63;;;9.57;;
